Time;durP1;ratioP1;P1;durP2;ratioP2;P2;SDS_P1;SDS_P2;PMS_P1;PMS_P2;Temp;Humidity;BMP_temperature;BMP_pressure;BME280_temperature;BME280_humidity;BME280_pressure;Samples;Min_cycle;Max_cycle;Signal;HPM_P1;HPM_P2
2021/04/14 00:00:32;;;;;;;20.70;17.80;;;6.00;66.90;;;;;;5017706;28;20034;-84
2021/04/14 00:02:59;;;;;;;22.20;18.23;;;6.00;66.90;;;;;;5025916;28;20025;-84
2021/04/14 00:05:30;;;;;;;25.03;20.33;;;6.10;66.90;;;;;;5033341;28;20021;-84
2021/04/14 00:07:56;;;;;;;22.83;19.17;;;6.00;66.70;;;;;;5024189;28;20158;-84
2021/04/14 00:10:28;;;;;;;24.63;19.70;;;6.10;67.00;;;;;;5018216;28;20033;-84
2021/04/14 00:12:53;;;;;;;24.00;19.00;;;6.00;67.50;;;;;;5015473;28;20025;-84
2021/04/14 00:15:37;;;;;;;25.27;20.07;;;6.00;67.10;;;;;;5028538;28;20029;-84
2021/04/14 00:18:03;;;;;;;22.53;18.30;;;6.00;67.10;;;;;;5024941;28;20057;-84
2021/04/14 00:20:29;;;;;;;19.40;16.13;;;6.00;67.10;;;;;;5031079;28;20417;-84
2021/04/14 00:22:55;;;;;;;14.97;12.43;;;6.00;67.00;;;;;;5022230;28;20029;-84
2021/04/14 00:25:25;;;;;;;15.87;12.47;;;5.90;66.80;;;;;;5012431;28;20037;-83
2021/04/14 00:27:52;;;;;;;15.80;12.23;;;5.90;67.00;;;;;;5026969;28;20482;-84
2021/04/14 00:30:18;;;;;;;13.93;11.97;;;5.90;67.00;;;;;;5024419;28;20040;-83
2021/04/14 00:32:44;;;;;;;15.03;11.87;;;6.00;66.90;;;;;;5018795;28;20030;-83
2021/04/14 00:55:28;;;;;;;12.03;10.30;;;5.70;66.80;;;;;;5022028;28;20401;-82
2021/04/14 00:57:55;;;;;;;12.15;9.93;;;5.70;66.70;;;;;;5013754;28;20041;-83
2021/04/14 01:00:31;;;;;;;14.47;10.77;;;5.80;66.60;;;;;;5031303;28;20092;-82
2021/04/14 01:02:57;;;;;;;12.47;10.33;;;5.70;66.60;;;;;;5028182;28;20393;-83
2021/04/14 01:05:23;;;;;;;16.13;9.73;;;5.70;66.60;;;;;;5028889;28;20017;-82
2021/04/14 01:07:50;;;;;;;12.93;10.63;;;5.70;66.70;;;;;;5027436;28;20033;-82
2021/04/14 01:10:17;;;;;;;16.50;9.67;;;5.60;66.70;;;;;;5032729;28;20029;-85
2021/04/14 01:12:43;;;;;;;12.73;9.77;;;5.60;66.80;;;;;;5031867;28;20101;-85
2021/04/14 01:15:13;;;;;;;11.70;9.50;;;5.60;66.70;;;;;;5031577;28;20052;-85
2021/04/14 01:17:39;;;;;;;10.47;8.40;;;5.60;66.70;;;;;;5019709;28;20041;-85
2021/04/14 01:20:06;;;;;;;10.53;9.23;;;5.60;66.70;;;;;;5030878;28;20428;-85
2021/04/14 01:22:32;;;;;;;13.47;10.10;;;5.60;66.80;;;;;;5030322;28;20022;-85
2021/04/14 01:24:57;;;;;;;12.17;10.13;;;5.60;66.80;;;;;;5028022;28;20033;-85
2021/04/14 01:27:23;;;;;;;13.17;10.53;;;5.60;66.80;;;;;;5032842;28;20056;-83
2021/04/14 01:29:49;;;;;;;14.50;11.00;;;5.60;66.80;;;;;;5029804;28;20026;-83
2021/04/14 01:32:15;;;;;;;12.00;10.20;;;5.60;66.60;;;;;;5029971;28;20104;-82
2021/04/14 01:34:40;;;;;;;16.17;11.83;;;5.60;66.80;;;;;;5031925;28;20022;-83
2021/04/14 01:37:07;;;;;;;15.10;11.63;;;5.70;66.80;;;;;;5028413;28;20040;-83
2021/04/14 01:39:33;;;;;;;14.27;12.17;;;5.70;66.70;;;;;;5018222;28;20053;-83
2021/04/14 01:41:58;;;;;;;14.77;11.73;;;5.60;66.90;;;;;;5022605;28;20038;-83
2021/04/14 01:44:24;;;;;;;15.13;12.07;;;5.70;67.10;;;;;;5030906;28;20029;-83
2021/04/14 01:46:50;;;;;;;14.43;12.10;;;5.70;66.90;;;;;;5028274;28;20042;-86
2021/04/14 01:49:16;;;;;;;16.57;12.57;;;5.60;66.90;;;;;;5025463;28;20045;-83
2021/04/14 01:51:42;;;;;;;14.13;11.90;;;5.60;67.00;;;;;;5022720;28;20071;-83
2021/04/14 01:54:11;;;;;;;14.83;10.90;;;5.60;67.30;;;;;;5036200;28;20065;-83
2021/04/14 01:56:36;;;;;;;15.57;12.33;;;5.60;67.20;;;;;;5034922;28;20029;-83
2021/04/14 01:59:03;;;;;;;16.33;12.30;;;5.60;67.80;;;;;;5034519;28;20041;-83
2021/04/14 02:01:29;;;;;;;16.17;12.77;;;5.60;67.10;;;;;;5029328;28;20038;-83
2021/04/14 02:03:54;;;;;;;13.43;11.67;;;5.60;67.10;;;;;;5032098;28;20030;-86
2021/04/14 02:06:20;;;;;;;16.70;12.47;;;5.60;67.20;;;;;;5018804;28;20036;-86
2021/04/14 02:08:46;;;;;;;14.50;11.40;;;5.60;67.20;;;;;;5019804;28;20029;-86
2021/04/14 02:11:14;;;;;;;14.30;11.77;;;5.60;67.30;;;;;;5032737;28;20375;-86
2021/04/14 02:13:41;;;;;;;13.03;11.63;;;5.70;67.20;;;;;;5032621;28;20389;-86
2021/04/14 02:16:14;;;;;;;16.37;12.43;;;5.60;66.90;;;;;;5018387;28;20058;-86
2021/04/14 02:18:40;;;;;;;;;;;5.60;67.00;;;;;;5025647;28;20433;-86
2021/04/14 02:21:06;;;;;;;14.10;11.97;;;5.60;66.90;;;;;;5034837;28;19954;-87
2021/04/14 02:23:34;;;;;;;14.57;11.30;;;5.60;66.90;;;;;;5028256;28;20022;-86
2021/04/14 02:26:03;;;;;;;17.37;13.30;;;5.60;67.10;;;;;;5043373;28;20144;-86
2021/04/14 02:28:30;;;;;;;11.57;9.43;;;5.60;66.90;;;;;;5030733;28;20489;-87
2021/04/14 02:30:56;;;;;;;12.20;9.23;;;5.60;66.70;;;;;;5030302;28;20106;-87
2021/04/14 02:33:22;;;;;;;11.40;8.93;;;5.60;66.80;;;;;;5026361;28;20035;-86
2021/04/14 02:35:49;;;;;;;10.23;8.50;;;5.60;66.60;;;;;;5034390;28;20385;-86
2021/04/14 02:38:15;;;;;;;11.03;9.13;;;5.60;66.50;;;;;;5029351;28;20132;-86
2021/04/14 02:40:41;;;;;;;10.57;8.80;;;5.60;66.40;;;;;;5031831;28;20117;-86
2021/04/14 02:43:07;;;;;;;15.37;9.83;;;5.60;66.30;;;;;;5028366;28;20030;-84
2021/04/14 02:45:38;;;;;;;12.57;10.30;;;5.60;66.30;;;;;;5028983;28;20091;-87
2021/04/14 02:48:05;;;;;;;14.80;11.20;;;5.60;66.40;;;;;;5034005;28;20068;-86
2021/04/14 02:50:31;;;;;;;15.70;11.37;;;5.60;66.40;;;;;;5035701;28;20030;-86
2021/04/14 02:52:57;;;;;;;14.70;10.30;;;5.50;66.40;;;;;;5030682;28;20068;-84
2021/04/14 02:55:27;;;;;;;13.33;10.27;;;5.50;66.70;;;;;;5030774;28;20058;-84
2021/04/14 02:57:53;;;;;;;13.80;11.13;;;5.50;66.70;;;;;;5033944;28;20060;-83
2021/04/14 03:00:21;;;;;;;15.40;11.43;;;5.50;66.50;;;;;;5030327;28;20060;-84
2021/04/14 03:02:46;;;;;;;17.97;13.60;;;5.50;66.50;;;;;;5021371;28;20116;-83
2021/04/14 03:05:14;;;;;;;17.97;14.80;;;5.50;66.60;;;;;;5035204;28;20097;-83
2021/04/14 03:07:40;;;;;;;19.50;14.50;;;5.50;66.70;;;;;;5027743;28;20025;-84
2021/04/14 03:10:08;;;;;;;21.17;15.97;;;5.50;66.50;;;;;;5033740;28;20108;-86
2021/04/14 03:12:34;;;;;;;19.60;15.57;;;5.40;66.50;;;;;;5033707;28;20411;-86
2021/04/14 03:15:00;;;;;;;20.23;15.37;;;5.30;66.70;;;;;;5033051;28;20392;-86
2021/04/14 03:17:27;;;;;;;18.93;15.43;;;5.30;66.90;;;;;;5030369;28;20034;-87
2021/04/14 03:19:53;;;;;;;20.87;15.43;;;5.30;67.20;;;;;;5033807;28;20033;-86
2021/04/14 03:22:18;;;;;;;19.87;15.43;;;5.40;67.00;;;;;;5030690;28;20488;-84
2021/04/14 03:24:44;;;;;;;21.00;16.10;;;5.30;67.10;;;;;;5033064;28;20092;-86
2021/04/14 03:27:10;;;;;;;18.90;14.50;;;5.40;67.00;;;;;;5026688;28;20022;-84
2021/04/14 03:29:35;;;;;;;16.03;12.70;;;5.40;66.90;;;;;;5032044;28;20037;-84
2021/04/14 03:32:01;;;;;;;13.10;11.40;;;5.40;66.90;;;;;;5033693;28;20580;-83
2021/04/14 03:34:27;;;;;;;15.37;12.17;;;5.40;66.90;;;;;;5033543;28;20033;-84
2021/04/14 03:36:53;;;;;;;17.07;13.73;;;5.40;66.90;;;;;;5032285;28;20022;-84
2021/04/14 03:39:19;;;;;;;20.77;15.00;;;5.40;66.90;;;;;;5033586;28;20429;-86
2021/04/14 03:41:44;;;;;;;19.27;14.03;;;5.40;66.90;;;;;;5028173;28;20034;-87
2021/04/14 03:44:10;;;;;;;18.70;13.47;;;5.40;66.90;;;;;;5026678;28;20025;-87
2021/04/14 03:46:36;;;;;;;16.33;12.97;;;5.40;66.80;;;;;;5032619;28;20025;-87
2021/04/14 03:49:01;;;;;;;17.53;12.90;;;5.30;67.00;;;;;;5020603;28;20030;-87
2021/04/14 03:51:27;;;;;;;17.23;13.00;;;5.30;67.10;;;;;;5027504;28;20116;-87
2021/04/14 03:53:55;;;;;;;19.10;13.53;;;5.40;67.20;;;;;;5015670;28;20057;-86
2021/04/14 03:56:21;;;;;;;22.13;14.83;;;5.40;67.10;;;;;;5014324;28;20030;-86
2021/04/14 03:58:50;;;;;;;18.27;14.43;;;5.30;66.90;;;;;;5034394;28;20061;-86
2021/04/14 04:01:20;;;;;;;16.47;13.30;;;5.20;67.30;;;;;;5017370;28;20121;-86
2021/04/14 04:03:46;;;;;;;18.33;12.80;;;5.20;67.60;;;;;;5024711;28;20551;-84
2021/04/14 04:06:12;;;;;;;17.63;13.83;;;5.20;67.60;;;;;;5027190;28;20104;-83
2021/04/14 04:08:38;;;;;;;17.23;12.77;;;5.10;67.50;;;;;;5026386;28;20031;-83
2021/04/14 04:11:04;;;;;;;15.83;12.70;;;5.10;67.70;;;;;;5031770;28;20067;-83
2021/04/14 04:13:31;;;;;;;17.47;13.23;;;5.10;67.80;;;;;;5023539;28;20030;-84
2021/04/14 04:15:57;;;;;;;16.83;13.50;;;5.00;67.40;;;;;;5033090;28;20453;-84
2021/04/14 04:18:23;;;;;;;18.00;13.10;;;5.00;67.60;;;;;;5027257;28;20022;-84
2021/04/14 04:20:49;;;;;;;16.47;11.27;;;5.10;67.60;;;;;;5026515;28;20063;-84
2021/04/14 04:23:14;;;;;;;14.20;10.97;;;5.10;67.60;;;;;;5030681;28;20561;-84
2021/04/14 04:25:41;;;;;;;14.93;11.00;;;5.10;67.10;;;;;;5020097;28;20029;-84
2021/04/14 04:28:07;;;;;;;14.63;10.53;;;4.90;67.10;;;;;;5032428;28;20057;-85
2021/04/14 04:30:34;;;;;;;15.10;11.40;;;4.90;67.00;;;;;;5031348;28;20029;-85
2021/04/14 04:33:01;;;;;;;20.50;12.43;;;4.90;67.30;;;;;;5031868;28;20029;-84
2021/04/14 04:35:29;;;;;;;18.30;11.57;;;4.80;67.00;;;;;;5015333;28;20087;-84
2021/04/14 04:37:54;;;;;;;21.07;13.00;;;4.80;67.00;;;;;;5028308;28;20025;-85
2021/04/14 04:40:21;;;;;;;23.43;14.87;;;4.80;66.70;;;;;;5024404;28;20032;-85
2021/04/14 04:42:48;;;;;;;19.73;12.63;;;4.80;66.80;;;;;;5022142;28;20673;-85
2021/04/14 04:45:16;;;;;;;22.93;13.37;;;4.80;66.90;;;;;;5018994;28;20385;-85
2021/04/14 04:47:42;;;;;;;22.73;13.30;;;4.80;67.00;;;;;;5032450;28;20029;-84
2021/04/14 04:50:08;;;;;;;21.30;12.67;;;4.80;66.90;;;;;;5032437;28;20388;-85
2021/04/14 04:52:34;;;;;;;18.73;12.83;;;4.90;66.80;;;;;;5033124;28;20025;-85
2021/04/14 04:55:00;;;;;;;18.47;12.87;;;4.90;66.60;;;;;;5025868;28;20048;-85
2021/04/14 04:57:25;;;;;;;17.30;12.70;;;4.90;66.50;;;;;;5014467;28;20385;-85
2021/04/14 04:59:52;;;;;;;21.13;13.03;;;4.80;66.60;;;;;;5022678;28;20695;-84
2021/04/14 05:02:17;;;;;;;21.97;15.37;;;4.80;66.60;;;;;;5031910;28;20021;-84
2021/04/14 05:04:43;;;;;;;22.97;15.47;;;4.80;66.60;;;;;;5027291;28;20519;-85
2021/04/14 05:07:09;;;;;;;22.80;16.40;;;4.70;66.90;;;;;;5027342;28;20026;-84
2021/04/14 05:09:35;;;;;;;27.50;18.73;;;4.80;67.00;;;;;;5023086;28;20055;-84
2021/04/14 05:12:00;;;;;;;27.43;19.73;;;4.80;67.00;;;;;;5015583;28;20033;-84
2021/04/14 05:14:26;;;;;;;24.87;17.47;;;4.70;67.10;;;;;;5031178;28;20435;-84
2021/04/14 05:16:52;;;;;;;22.13;14.10;;;4.80;67.20;;;;;;5028892;28;20033;-84
2021/04/14 05:19:18;;;;;;;20.50;13.70;;;4.80;67.00;;;;;;5031718;28;20037;-84
2021/04/14 05:21:43;;;;;;;18.20;13.20;;;4.80;66.90;;;;;;5032919;28;20044;-84
2021/04/14 05:24:10;;;;;;;22.73;15.53;;;4.80;66.80;;;;;;5030490;28;20025;-85
2021/04/14 05:26:37;;;;;;;25.43;18.53;;;4.90;66.90;;;;;;5029211;28;20034;-84
2021/04/14 05:29:03;;;;;;;23.63;15.50;;;4.90;66.70;;;;;;5020321;28;20036;-84
2021/04/14 05:31:30;;;;;;;19.43;15.00;;;5.00;66.60;;;;;;5026627;28;20037;-84
2021/04/14 05:33:58;;;;;;;21.37;14.00;;;5.10;66.50;;;;;;5027032;28;20033;-84
2021/04/14 05:36:24;;;;;;;17.67;13.07;;;5.10;66.30;;;;;;5025838;28;20070;-84
2021/04/14 05:38:51;;;;;;;16.67;13.10;;;5.10;66.10;;;;;;5015095;28;20037;-84
2021/04/14 05:41:17;;;;;;;14.63;11.07;;;5.10;66.20;;;;;;5021582;28;20477;-84
2021/04/14 05:43:45;;;;;;;12.33;9.47;;;5.00;65.90;;;;;;5028527;28;20029;-84
2021/04/14 05:46:13;;;;;;;11.23;8.60;;;5.00;66.20;;;;;;5030387;28;20370;-84
2021/04/14 05:48:41;;;;;;;17.17;11.13;;;5.10;65.80;;;;;;5025569;28;20108;-84
2021/04/14 05:51:09;;;;;;;17.23;12.70;;;5.10;65.20;;;;;;5031207;28;20033;-84
2021/04/14 05:53:37;;;;;;;20.77;14.53;;;5.10;65.50;;;;;;5028499;28;20053;-84
2021/04/14 05:56:05;;;;;;;20.03;14.37;;;5.10;65.60;;;;;;5024489;28;20537;-84
2021/04/14 05:58:30;;;;;;;14.97;10.97;;;5.10;65.80;;;;;;5010850;28;20129;-84
2021/04/14 06:00:57;;;;;;;12.13;9.20;;;5.20;65.80;;;;;;5024959;28;20562;-84
2021/04/14 06:03:23;;;;;;;20.07;13.23;;;5.30;65.90;;;;;;5011807;28;20437;-85
2021/04/14 06:06:00;;;;;;;19.83;14.67;;;5.30;65.50;;;;;;5024584;28;20080;-84
2021/04/14 06:08:27;;;;;;;21.20;15.77;;;5.30;65.50;;;;;;5030124;28;20041;-84
2021/04/14 06:10:53;;;;;;;21.93;16.90;;;5.30;65.60;;;;;;5028756;28;20033;-85
2021/04/14 06:13:19;;;;;;;22.50;18.07;;;5.30;65.80;;;;;;5029504;28;20128;-84
2021/04/14 06:15:46;;;;;;;30.37;19.80;;;5.30;65.80;;;;;;5027804;28;20037;-84
2021/04/14 06:18:13;;;;;;;27.97;20.20;;;5.30;65.80;;;;;;5026773;28;20108;-84
2021/04/14 06:20:39;;;;;;;26.63;20.27;;;5.40;65.90;;;;;;5025517;28;20041;-84
2021/04/14 06:23:08;;;;;;;31.43;20.80;;;5.40;65.70;;;;;;5023162;28;20045;-85
2021/04/14 06:25:40;;;;;;;25.63;19.90;;;5.30;65.90;;;;;;5013485;28;20363;-84
2021/04/14 06:28:06;;;;;;;24.93;18.63;;;5.30;66.40;;;;;;5014764;28;20462;-84
2021/04/14 06:30:38;;;;;;;27.63;19.70;;;5.30;66.30;;;;;;5024171;28;20035;-84
2021/04/14 06:33:06;;;;;;;24.00;19.27;;;5.30;66.40;;;;;;5029496;28;20029;-84
2021/04/14 06:35:32;;;;;;;21.27;17.70;;;5.20;66.20;;;;;;5018670;28;20091;-84
2021/04/14 06:37:59;;;;;;;26.70;20.70;;;5.20;66.60;;;;;;5028230;28;20033;-84
2021/04/14 06:43:46;;;;;;;25.60;18.70;;;5.20;66.30;;;;;;5024998;28;20028;-84
2021/04/14 06:46:29;;;;;;;24.13;18.03;;;5.20;66.30;;;;;;5025200;28;20508;-84
2021/04/14 06:49:07;;;;;;;26.63;19.10;;;5.20;66.50;;;;;;5016657;28;20033;-84
2021/04/14 06:51:32;;;;;;;24.17;18.17;;;5.30;66.50;;;;;;5031384;28;20029;-84
2021/04/14 06:54:04;;;;;;;23.47;19.67;;;5.40;66.40;;;;;;5025815;28;20061;-84
2021/04/14 06:56:31;;;;;;;26.30;19.90;;;5.50;66.20;;;;;;5019606;28;20040;-85
2021/04/14 06:59:03;;;;;;;21.97;17.90;;;5.60;65.80;;;;;;5020579;28;20037;-84
2021/04/14 07:01:35;;;;;;;22.55;17.85;;;5.70;65.50;;;;;;5033295;28;20033;-84
2021/04/14 07:04:11;;;;;;;22.55;17.83;;;5.80;65.20;;;;;;5034385;28;20056;-84
2021/04/14 07:06:43;;;;;;;22.77;17.07;;;5.70;64.80;;;;;;5033462;28;20553;-84
2021/04/14 07:09:34;;;;;;;21.38;17.70;;;5.70;64.80;;;;;;5035047;28;20021;-84
2021/04/14 07:12:01;;;;;;;24.67;18.03;;;5.80;64.80;;;;;;5033439;28;20481;-84
2021/04/14 07:14:28;;;;;;;23.03;18.10;;;5.80;64.70;;;;;;5031896;28;20140;-84
2021/04/14 07:17:03;;;;;;;25.67;18.87;;;5.80;64.50;;;;;;5034107;28;20113;-84
2021/04/14 07:19:47;;;;;;;23.67;18.23;;;5.70;64.70;;;;;;5033373;28;20037;-84
2021/04/14 07:22:38;;;;;;;25.33;17.30;;;5.80;65.00;;;;;;5030919;28;20033;-84
2021/04/14 07:25:24;;;;;;;35.87;21.03;;;6.00;64.90;;;;;;5030697;28;20033;-83
2021/04/14 07:27:55;;;;;;;28.80;17.50;;;6.20;64.50;;;;;;5017593;28;20072;-84
2021/04/14 07:30:32;;;;;;;24.90;18.17;;;6.30;64.50;;;;;;5036027;28;20481;-83
2021/04/14 07:33:22;;;;;;;22.50;17.33;;;6.50;63.80;;;;;;5024764;28;20030;-83
2021/04/14 07:35:57;;;;;;;24.87;16.47;;;6.60;63.60;;;;;;5026331;28;20041;-83
2021/04/14 07:38:45;;;;;;;25.90;18.70;;;6.60;63.20;;;;;;5032399;28;20120;-84
2021/04/14 07:41:17;;;;;;;25.33;18.80;;;6.70;63.20;;;;;;5025264;28;20095;-83
2021/04/14 07:43:56;;;;;;;24.43;19.17;;;6.80;63.00;;;;;;5027090;28;20525;-84
2021/04/14 07:46:24;;;;;;;26.43;19.57;;;6.70;62.80;;;;;;5030076;28;20029;-83
2021/04/14 07:48:53;;;;;;;24.77;18.00;;;6.70;62.90;;;;;;5032912;28;20031;-84
2021/04/14 07:51:21;;;;;;;21.67;17.10;;;6.80;62.80;;;;;;5029791;28;20033;-84
2021/04/14 07:54:08;;;;;;;25.43;17.00;;;6.80;62.80;;;;;;5026814;28;20084;-83
2021/04/14 07:56:46;;;;;;;24.53;18.83;;;6.80;62.70;;;;;;5020604;28;20033;-84
2021/04/14 07:59:16;;;;;;;27.60;19.10;;;6.80;62.70;;;;;;5021917;28;20171;-83
2021/04/14 08:02:05;;;;;;;25.00;18.93;;;6.90;62.90;;;;;;5029442;28;20033;-84
2021/04/14 08:04:35;;;;;;;23.87;18.63;;;7.00;62.80;;;;;;5035495;28;20029;-83
2021/04/14 08:07:16;;;;;;;25.63;17.87;;;7.10;62.70;;;;;;5032404;28;20124;-83
2021/04/14 08:09:48;;;;;;;18.57;15.57;;;7.20;62.70;;;;;;5032247;28;20025;-83
2021/04/14 08:12:23;;;;;;;19.00;15.63;;;7.30;62.20;;;;;;5016978;28;20474;-84
2021/04/14 08:14:49;;;;;;;19.73;15.53;;;7.30;61.90;;;;;;5031449;28;20042;-83
2021/04/14 08:17:21;;;;;;;17.50;14.30;;;7.60;62.10;;;;;;5031673;28;20044;-83
2021/04/14 08:20:06;;;;;;;19.83;13.95;;;7.90;61.70;;;;;;5029147;28;20149;-83
2021/04/14 08:22:32;;;;;;;15.20;13.10;;;8.30;61.50;;;;;;5017056;28;20087;-83
2021/04/14 08:25:05;;;;;;;18.23;14.23;;;8.60;61.00;;;;;;5023186;28;20021;-84
2021/04/14 08:27:31;;;;;;;16.02;13.18;;;8.80;60.60;;;;;;5021220;28;20036;-83
2021/04/14 08:30:04;;;;;;;18.40;13.50;;;8.80;60.20;;;;;;5028090;28;20373;-83
2021/04/14 08:32:39;;;;;;;14.87;12.43;;;8.80;60.10;;;;;;5030135;28;20079;-83
2021/04/14 08:35:24;;;;;;;14.93;13.33;;;8.70;59.80;;;;;;5031493;28;20397;-83
2021/04/14 08:38:06;;;;;;;14.87;11.93;;;8.40;59.20;;;;;;5031310;28;20080;-83
2021/04/14 08:40:35;;;;;;;16.20;13.00;;;8.30;59.40;;;;;;5026104;28;20025;-83
2021/04/14 08:43:10;;;;;;;16.50;13.20;;;8.30;59.10;;;;;;5032518;28;20025;-83
2021/04/14 08:45:43;;;;;;;15.43;12.30;;;8.40;59.10;;;;;;5015319;28;20053;-83
2021/04/14 08:48:15;;;;;;;13.70;12.13;;;8.50;59.00;;;;;;5028737;28;20087;-82
2021/04/14 08:50:48;;;;;;;15.03;12.80;;;8.70;59.10;;;;;;5026262;28;20444;-83
2021/04/14 08:53:17;;;;;;;17.17;13.80;;;8.90;58.80;;;;;;5030942;28;20294;-83
2021/04/14 08:55:43;;;;;;;15.90;12.50;;;8.90;58.40;;;;;;5028741;28;20030;-83
2021/04/14 08:58:09;;;;;;;17.67;13.00;;;8.90;58.60;;;;;;5020533;28;20029;-83
2021/04/14 09:00:35;;;;;;;15.93;13.33;;;8.90;58.20;;;;;;5029752;28;20084;-83
2021/04/14 09:03:05;;;;;;;15.50;12.73;;;8.80;57.60;;;;;;5028191;28;20026;-83
2021/04/14 09:05:32;;;;;;;18.13;13.57;;;8.70;57.60;;;;;;5030431;28;20067;-83
2021/04/14 09:08:00;;;;;;;17.43;14.27;;;8.70;57.80;;;;;;5030923;28;20028;-83
2021/04/14 09:10:40;;;;;;;17.73;13.50;;;8.90;58.10;;;;;;5020987;28;20034;-83
2021/04/14 09:13:09;;;;;;;16.47;13.53;;;9.10;57.70;;;;;;5032311;28;20432;-83
2021/04/14 09:15:56;;;;;;;15.20;13.27;;;9.20;57.60;;;;;;5018930;28;20030;-83
2021/04/14 09:18:29;;;;;;;16.17;12.50;;;9.50;57.90;;;;;;5028865;28;20197;-83
2021/04/14 09:21:12;;;;;;;14.63;11.68;;;9.80;57.90;;;;;;5016453;28;20049;-83
2021/04/14 09:23:53;;;;;;;17.87;12.43;;;10.10;57.90;;;;;;5024595;28;20033;-83
2021/04/14 09:26:28;;;;;;;15.20;11.77;;;10.20;57.30;;;;;;5030324;28;20132;-83
2021/04/14 09:28:54;;;;;;;15.00;11.63;;;10.30;56.60;;;;;;5028753;28;20120;-83
2021/04/14 09:31:40;;;;;;;17.30;12.60;;;10.10;56.40;;;;;;5021969;28;20092;-83
2021/04/14 09:34:11;;;;;;;12.83;10.97;;;10.10;56.70;;;;;;5022627;28;20482;-83
2021/04/14 09:36:44;;;;;;;12.97;10.13;;;10.30;56.60;;;;;;5026335;28;20486;-83
2021/04/14 09:39:27;;;;;;;14.20;10.57;;;10.30;56.00;;;;;;5027582;28;21179;-83
2021/04/14 09:41:52;;;;;;;10.13;8.48;;;10.30;55.30;;;;;;5012687;28;20425;-83
2021/04/14 09:44:39;;;;;;;11.53;9.53;;;10.10;54.30;;;;;;5029334;28;20037;-83
2021/04/14 09:47:14;;;;;;;11.00;8.20;;;10.00;54.10;;;;;;5021930;28;20051;-82
2021/04/14 09:49:43;;;;;;;8.70;7.27;;;10.10;53.80;;;;;;5023266;28;20084;-83
2021/04/14 09:52:26;;;;;;;11.63;6.90;;;10.10;53.40;;;;;;5018154;28;20037;-83
2021/04/14 09:55:07;;;;;;;9.13;7.17;;;10.00;52.60;;;;;;5025521;28;20076;-82
2021/04/14 09:57:39;;;;;;;10.07;6.93;;;9.90;52.30;;;;;;5031546;28;20029;-83
2021/04/14 10:00:13;;;;;;;9.30;6.27;;;9.80;52.50;;;;;;5030698;28;20029;-83
2021/04/14 10:02:39;;;;;;;6.07;4.77;;;9.80;52.50;;;;;;5028702;28;20060;-83
2021/04/14 10:05:05;;;;;;;8.67;5.47;;;9.80;52.40;;;;;;5026975;28;20504;-83
2021/04/14 10:07:36;;;;;;;9.03;5.50;;;9.80;52.00;;;;;;5030665;28;20022;-82
2021/04/14 10:10:09;;;;;;;6.47;4.83;;;9.80;51.10;;;;;;5031397;28;20026;-83
2021/04/14 10:12:35;;;;;;;7.57;4.03;;;9.70;50.60;;;;;;5032363;28;20654;-83
2021/04/14 10:15:04;;;;;;;6.87;3.43;;;9.70;50.70;;;;;;5024952;28;20029;-83
2021/04/14 10:17:32;;;;;;;7.23;5.30;;;9.80;50.50;;;;;;5031476;28;20025;-83
2021/04/14 10:20:15;;;;;;;8.63;5.73;;;9.80;50.70;;;;;;5030643;28;20074;-83
2021/04/14 10:22:47;;;;;;;7.32;5.20;;;9.80;50.80;;;;;;5031892;28;20108;-83
2021/04/14 10:25:32;;;;;;;7.57;5.35;;;9.60;51.30;;;;;;5025416;28;20048;-83
2021/04/14 10:28:04;;;;;;;9.50;5.83;;;9.40;51.70;;;;;;5027011;28;20111;-83
2021/04/14 10:30:32;;;;;;;11.18;5.97;;;9.20;52.50;;;;;;5021289;28;20037;-83
2021/04/14 10:33:06;;;;;;;11.30;5.70;;;9.10;53.50;;;;;;5031557;28;20485;-84
2021/04/14 10:35:33;;;;;;;8.87;5.40;;;9.10;54.50;;;;;;5030939;28;20029;-83
2021/04/14 10:38:00;;;;;;;10.03;5.77;;;9.00;54.70;;;;;;5023746;28;20038;-83
2021/04/14 10:40:31;;;;;;;7.30;5.73;;;8.90;55.00;;;;;;5031179;28;20032;-83
2021/04/14 10:43:09;;;;;;;8.53;5.73;;;8.80;55.50;;;;;;5038862;28;20032;-83
2021/04/14 10:45:35;;;;;;;7.97;5.30;;;8.80;55.80;;;;;;5031384;28;20424;-82
2021/04/14 10:48:05;;;;;;;6.03;4.90;;;8.70;55.80;;;;;;5033154;28;20017;-83
2021/04/14 10:50:33;;;;;;;5.30;4.50;;;8.60;56.10;;;;;;5032410;28;20165;-83
2021/04/14 10:53:04;;;;;;;8.50;5.50;;;8.60;56.00;;;;;;5029067;28;20113;-83
2021/04/14 10:55:36;;;;;;;8.93;5.63;;;8.60;55.80;;;;;;5022913;28;20057;-83
2021/04/14 10:58:04;;;;;;;;;;;8.60;56.60;;;;;;5032332;28;20025;-83
2021/04/14 11:00:37;;;;;;;6.73;5.53;;;8.60;56.50;;;;;;5033600;28;19917;-84
2021/04/14 11:03:10;;;;;;;;;;;8.50;56.70;;;;;;5023791;28;20021;-84
2021/04/14 11:05:45;;;;;;;9.25;5.70;;;8.60;57.00;;;;;;5030832;28;19909;-82
2021/04/14 11:08:12;;;;;;;6.00;4.70;;;8.70;56.70;;;;;;5025778;28;20065;-83
2021/04/14 11:10:40;;;;;;;10.00;4.60;;;8.60;56.60;;;;;;5024824;28;20522;-84
2021/04/14 11:13:11;;;;;;;7.73;4.70;;;8.60;56.50;;;;;;5031641;28;20053;-84
2021/04/14 11:15:45;;;;;;;6.38;4.80;;;8.60;56.60;;;;;;5032092;28;20101;-84
2021/04/14 11:18:12;;;;;;;7.70;4.60;;;8.80;56.30;;;;;;5031204;28;20037;-84
2021/04/14 11:20:51;;;;;;;7.53;3.97;;;9.10;55.90;;;;;;5029814;28;20029;-84
2021/04/14 11:23:33;;;;;;;5.80;3.40;;;9.30;54.80;;;;;;5031143;28;20033;-83
2021/04/14 11:26:19;;;;;;;5.57;3.05;;;9.60;54.30;;;;;;5024678;28;20389;-83
2021/04/14 11:28:51;;;;;;;4.23;2.97;;;9.90;53.20;;;;;;5038997;28;20495;-84
2021/04/14 11:31:28;;;;;;;4.20;3.23;;;10.20;52.70;;;;;;5033778;28;20033;-84
2021/04/14 11:33:55;;;;;;;5.10;3.50;;;10.40;51.90;;;;;;5031785;28;20026;-84
2021/04/14 11:36:33;;;;;;;4.57;2.70;;;10.50;51.60;;;;;;5033470;28;20036;-84
2021/04/14 11:39:04;;;;;;;4.10;3.20;;;10.70;50.00;;;;;;5025812;28;20033;-83
2021/04/14 11:41:43;;;;;;;5.70;3.00;;;10.90;49.60;;;;;;5025867;28;20030;-83
2021/04/14 11:44:23;;;;;;;4.87;2.97;;;11.00;49.40;;;;;;5028504;28;20033;-83
2021/04/14 11:47:00;;;;;;;6.57;3.50;;;11.20;48.70;;;;;;5032195;28;20034;-84
2021/04/14 11:49:33;;;;;;;6.13;3.53;;;11.30;48.00;;;;;;5023014;28;20018;-83
2021/04/14 11:52:01;;;;;;;;;;;11.40;48.20;;;;;;5017952;28;20434;-84
2021/04/14 11:54:34;;;;;;;5.57;3.33;;;11.50;48.30;;;;;;5021665;28;19913;-84
2021/04/14 11:57:12;;;;;;;3.93;3.13;;;11.50;47.50;;;;;;5029696;28;20029;-83
2021/04/14 11:59:43;;;;;;;3.57;3.00;;;11.30;45.50;;;;;;5031744;28;20111;-83
2021/04/14 12:02:12;;;;;;;5.13;3.70;;;11.10;45.80;;;;;;5032281;28;20108;-83
2021/04/14 12:04:38;;;;;;;5.60;3.33;;;11.30;46.00;;;;;;5023521;28;20055;-83
2021/04/14 12:07:05;;;;;;;4.47;3.00;;;11.50;46.10;;;;;;5017607;28;20101;-83
2021/04/14 12:09:30;;;;;;;5.53;3.40;;;11.80;46.00;;;;;;5016472;28;20100;-83
2021/04/14 12:12:11;;;;;;;4.70;3.03;;;12.00;45.70;;;;;;5029658;28;20080;-83
2021/04/14 12:14:36;;;;;;;5.83;3.37;;;12.20;44.90;;;;;;5023352;28;20030;-83
2021/04/14 12:17:03;;;;;;;5.03;3.67;;;12.20;44.90;;;;;;5030150;28;20102;-83
2021/04/14 12:19:31;;;;;;;5.73;3.30;;;12.30;44.80;;;;;;5031263;28;20492;-84
2021/04/14 12:21:57;;;;;;;8.70;4.70;;;12.50;44.00;;;;;;5033242;28;20029;-84
2021/04/14 12:24:23;;;;;;;6.83;4.20;;;12.50;43.80;;;;;;5029969;28;20036;-83
2021/04/14 12:26:48;;;;;;;12.23;6.57;;;12.60;43.10;;;;;;5022564;28;20030;-83
2021/04/14 12:29:16;;;;;;;6.73;4.13;;;12.60;42.70;;;;;;5020772;28;20418;-83
2021/04/14 12:31:42;;;;;;;6.00;3.50;;;12.70;42.60;;;;;;5029740;28;20514;-84
2021/04/14 12:34:11;;;;;;;11.53;5.57;;;12.80;42.30;;;;;;5028924;28;20026;-83
2021/04/14 12:36:38;;;;;;;4.03;2.67;;;12.80;42.00;;;;;;5029384;28;20022;-84
2021/04/14 12:39:06;;;;;;;12.13;7.20;;;12.90;41.40;;;;;;5021630;28;20126;-83
2021/04/14 12:41:33;;;;;;;4.37;2.53;;;13.00;41.40;;;;;;5014287;28;20030;-83
2021/04/14 12:44:00;;;;;;;3.23;2.03;;;13.20;41.20;;;;;;5031527;28;20108;-83
2021/04/14 12:46:25;;;;;;;8.27;4.20;;;13.30;40.40;;;;;;5031390;28;20028;-83
2021/04/14 12:48:51;;;;;;;4.43;3.10;;;13.10;40.40;;;;;;5031847;28;20477;-83
2021/04/14 12:51:30;;;;;;;3.73;2.80;;;13.20;40.70;;;;;;5032196;28;20709;-83
2021/04/14 12:54:02;;;;;;;9.40;4.80;;;13.10;40.70;;;;;;5031661;28;20046;-83
2021/04/14 12:56:34;;;;;;;6.87;2.90;;;12.60;41.50;;;;;;5026184;28;20041;-83
2021/04/14 12:59:11;;;;;;;8.68;2.85;;;12.50;42.30;;;;;;5032241;28;20112;-83
2021/04/14 13:01:37;;;;;;;4.80;3.27;;;12.20;42.50;;;;;;5017713;28;20045;-83
2021/04/14 13:04:12;;;;;;;3.50;3.03;;;12.10;43.10;;;;;;5027236;28;20535;-83
2021/04/14 13:06:45;;;;;;;8.80;3.10;;;12.10;43.40;;;;;;5017220;28;20024;-83
2021/04/14 13:09:12;;;;;;;5.82;3.42;;;12.10;43.70;;;;;;5029859;28;20053;-83
2021/04/14 13:11:45;;;;;;;6.03;3.97;;;12.20;44.20;;;;;;5026949;28;20042;-83
2021/04/14 13:14:12;;;;;;;7.43;3.73;;;12.20;44.50;;;;;;5015568;28;20053;-83
2021/04/14 13:17:18;;;;;;;5.20;3.33;;;12.10;44.50;;;;;;5031159;28;20112;-83